sensor_id;sensor_type;location;lat;lon;timestamp;P1;durP1;ratioP1;P2;durP2;ratioP2
46210;SDS011;52144;48.040;-1.594;2024-01-07T00:00:27;17.27;;;8.40;;
46210;SDS011;52144;48.040;-1.594;2024-01-07T00:02:56;11.43;;;8.02;;
46210;SDS011;52144;48.040;-1.594;2024-01-07T00:05:24;21.83;;;8.60;;
46210;SDS011;52144;48.040;-1.594;2024-01-07T00:07:53;17.58;;;7.43;;
46210;SDS011;52144;48.040;-1.594;2024-01-07T00:10:21;19.60;;;9.00;;
46210;SDS011;52144;48.040;-1.594;2024-01-07T00:12:49;16.15;;;6.78;;
46210;SDS011;52144;48.040;-1.594;2024-01-07T00:15:18;11.27;;;6.38;;
46210;SDS011;52144;48.040;-1.594;2024-01-07T00:17:46;7.60;;;4.90;;
46210;SDS011;52144;48.040;-1.594;2024-01-07T00:20:14;8.00;;;5.47;;
46210;SDS011;52144;48.040;-1.594;2024-01-07T00:22:42;11.07;;;5.15;;
46210;SDS011;52144;48.040;-1.594;2024-01-07T00:25:11;12.85;;;7.85;;
46210;SDS011;52144;48.040;-1.594;2024-01-07T00:27:39;15.80;;;8.02;;
46210;SDS011;52144;48.040;-1.594;2024-01-07T00:30:07;18.33;;;8.23;;
46210;SDS011;52144;48.040;-1.594;2024-01-07T00:32:35;19.23;;;9.63;;
46210;SDS011;52144;48.040;-1.594;2024-01-07T00:35:03;17.27;;;7.80;;
46210;SDS011;52144;48.040;-1.594;2024-01-07T00:37:31;13.88;;;7.10;;
46210;SDS011;52144;48.040;-1.594;2024-01-07T00:40:01;27.48;;;7.72;;
46210;SDS011;52144;48.040;-1.594;2024-01-07T00:42:30;18.17;;;6.93;;
46210;SDS011;52144;48.040;-1.594;2024-01-07T00:44:58;10.40;;;6.43;;
46210;SDS011;52144;48.040;-1.594;2024-01-07T00:47:26;7.65;;;4.72;;
46210;SDS011;52144;48.040;-1.594;2024-01-07T00:49:54;8.48;;;5.57;;
46210;SDS011;52144;48.040;-1.594;2024-01-07T00:52:21;6.35;;;5.45;;
46210;SDS011;52144;48.040;-1.594;2024-01-07T00:54:49;13.32;;;5.57;;
46210;SDS011;52144;48.040;-1.594;2024-01-07T00:57:17;5.82;;;3.92;;
46210;SDS011;52144;48.040;-1.594;2024-01-07T00:59:46;9.38;;;5.65;;
46210;SDS011;52144;48.040;-1.594;2024-01-07T01:02:14;13.15;;;4.38;;
46210;SDS011;52144;48.040;-1.594;2024-01-07T01:04:42;7.78;;;4.80;;
46210;SDS011;52144;48.040;-1.594;2024-01-07T01:07:10;5.10;;;4.18;;
46210;SDS011;52144;48.040;-1.594;2024-01-07T01:09:37;14.32;;;4.30;;
46210;SDS011;52144;48.040;-1.594;2024-01-07T01:12:05;3.75;;;3.30;;
46210;SDS011;52144;48.040;-1.594;2024-01-07T01:14:33;9.10;;;5.10;;
46210;SDS011;52144;48.040;-1.594;2024-01-07T01:17:03;9.38;;;4.93;;
46210;SDS011;52144;48.040;-1.594;2024-01-07T01:19:30;6.10;;;3.30;;
46210;SDS011;52144;48.040;-1.594;2024-01-07T01:21:59;5.88;;;4.47;;
46210;SDS011;52144;48.040;-1.594;2024-01-07T01:24:26;9.13;;;4.38;;
46210;SDS011;52144;48.040;-1.594;2024-01-07T01:26:54;4.78;;;3.13;;
46210;SDS011;52144;48.040;-1.594;2024-01-07T01:29:22;4.05;;;3.25;;
46210;SDS011;52144;48.040;-1.594;2024-01-07T01:31:50;7.32;;;3.58;;
46210;SDS011;52144;48.040;-1.594;2024-01-07T01:34:19;3.80;;;2.63;;
46210;SDS011;52144;48.040;-1.594;2024-01-07T01:36:47;5.43;;;3.60;;
46210;SDS011;52144;48.040;-1.594;2024-01-07T01:39:15;3.03;;;2.70;;
46210;SDS011;52144;48.040;-1.594;2024-01-07T01:41:42;5.63;;;3.85;;
46210;SDS011;52144;48.040;-1.594;2024-01-07T01:44:10;6.32;;;3.92;;
46210;SDS011;52144;48.040;-1.594;2024-01-07T01:46:38;3.88;;;2.80;;
46210;SDS011;52144;48.040;-1.594;2024-01-07T01:49:06;4.72;;;3.00;;
46210;SDS011;52144;48.040;-1.594;2024-01-07T01:51:36;5.47;;;4.15;;
46210;SDS011;52144;48.040;-1.594;2024-01-07T01:54:04;7.63;;;4.32;;
46210;SDS011;52144;48.040;-1.594;2024-01-07T01:56:32;9.50;;;5.30;;
46210;SDS011;52144;48.040;-1.594;2024-01-07T01:59:00;7.10;;;4.47;;
46210;SDS011;52144;48.040;-1.594;2024-01-07T02:01:28;4.50;;;2.95;;
46210;SDS011;52144;48.040;-1.594;2024-01-07T02:03:56;7.45;;;4.53;;
46210;SDS011;52144;48.040;-1.594;2024-01-07T02:06:24;5.95;;;3.15;;
46210;SDS011;52144;48.040;-1.594;2024-01-07T02:08:54;5.00;;;3.67;;
46210;SDS011;52144;48.040;-1.594;2024-01-07T02:11:22;4.95;;;3.47;;
46210;SDS011;52144;48.040;-1.594;2024-01-07T02:13:50;4.97;;;4.43;;
46210;SDS011;52144;48.040;-1.594;2024-01-07T02:16:18;6.22;;;3.30;;
46210;SDS011;52144;48.040;-1.594;2024-01-07T02:18:45;9.02;;;3.92;;
46210;SDS011;52144;48.040;-1.594;2024-01-07T02:21:14;3.90;;;3.22;;
46210;SDS011;52144;48.040;-1.594;2024-01-07T02:23:41;10.98;;;3.33;;
46210;SDS011;52144;48.040;-1.594;2024-01-07T02:26:11;3.63;;;2.97;;
46210;SDS011;52144;48.040;-1.594;2024-01-07T02:28:38;5.35;;;4.15;;
46210;SDS011;52144;48.040;-1.594;2024-01-07T02:31:06;5.05;;;3.13;;
46210;SDS011;52144;48.040;-1.594;2024-01-07T02:33:34;11.48;;;4.53;;
46210;SDS011;52144;48.040;-1.594;2024-01-07T02:36:02;6.70;;;3.70;;
46210;SDS011;52144;48.040;-1.594;2024-01-07T02:38:30;3.88;;;2.85;;
46210;SDS011;52144;48.040;-1.594;2024-01-07T02:40:58;3.67;;;3.38;;
46210;SDS011;52144;48.040;-1.594;2024-01-07T02:43:27;2.40;;;2.20;;
46210;SDS011;52144;48.040;-1.594;2024-01-07T02:45:55;7.47;;;3.33;;
46210;SDS011;52144;48.040;-1.594;2024-01-07T02:48:23;3.97;;;3.10;;
46210;SDS011;52144;48.040;-1.594;2024-01-07T02:50:51;6.25;;;3.70;;
46210;SDS011;52144;48.040;-1.594;2024-01-07T02:53:19;4.22;;;3.28;;
46210;SDS011;52144;48.040;-1.594;2024-01-07T02:55:47;2.85;;;2.63;;
46210;SDS011;52144;48.040;-1.594;2024-01-07T02:58:14;7.13;;;3.05;;
46210;SDS011;52144;48.040;-1.594;2024-01-07T03:00:44;4.38;;;3.38;;
46210;SDS011;52144;48.040;-1.594;2024-01-07T03:03:12;6.03;;;2.55;;
46210;SDS011;52144;48.040;-1.594;2024-01-07T03:05:40;4.30;;;2.60;;
46210;SDS011;52144;48.040;-1.594;2024-01-07T03:08:08;4.82;;;3.25;;
46210;SDS011;52144;48.040;-1.594;2024-01-07T03:10:36;2.55;;;1.80;;
46210;SDS011;52144;48.040;-1.594;2024-01-07T03:13:04;4.28;;;2.05;;
46210;SDS011;52144;48.040;-1.594;2024-01-07T03:15:31;6.32;;;2.65;;
46210;SDS011;52144;48.040;-1.594;2024-01-07T03:18:01;2.55;;;2.33;;
46210;SDS011;52144;48.040;-1.594;2024-01-07T03:20:28;3.50;;;3.13;;
46210;SDS011;52144;48.040;-1.594;2024-01-07T03:22:56;2.83;;;2.63;;
46210;SDS011;52144;48.040;-1.594;2024-01-07T03:25:24;3.03;;;2.47;;
46210;SDS011;52144;48.040;-1.594;2024-01-07T03:27:52;6.55;;;2.83;;
46210;SDS011;52144;48.040;-1.594;2024-01-07T03:30:19;3.60;;;2.20;;
46210;SDS011;52144;48.040;-1.594;2024-01-07T03:32:47;8.15;;;4.32;;
46210;SDS011;52144;48.040;-1.594;2024-01-07T03:35:17;2.67;;;2.40;;
46210;SDS011;52144;48.040;-1.594;2024-01-07T03:37:45;6.55;;;2.85;;
46210;SDS011;52144;48.040;-1.594;2024-01-07T03:40:12;3.13;;;2.83;;
46210;SDS011;52144;48.040;-1.594;2024-01-07T03:42:40;5.45;;;3.38;;
46210;SDS011;52144;48.040;-1.594;2024-01-07T03:45:08;2.95;;;2.13;;
46210;SDS011;52144;48.040;-1.594;2024-01-07T03:47:36;2.42;;;2.28;;
46210;SDS011;52144;48.040;-1.594;2024-01-07T03:50:04;4.80;;;3.53;;
46210;SDS011;52144;48.040;-1.594;2024-01-07T03:52:34;5.63;;;2.47;;
46210;SDS011;52144;48.040;-1.594;2024-01-07T03:55:02;5.32;;;3.45;;
46210;SDS011;52144;48.040;-1.594;2024-01-07T03:57:30;3.35;;;2.83;;
46210;SDS011;52144;48.040;-1.594;2024-01-07T03:59:59;2.30;;;2.08;;
46210;SDS011;52144;48.040;-1.594;2024-01-07T04:02:27;2.10;;;1.85;;
46210;SDS011;52144;48.040;-1.594;2024-01-07T04:04:55;3.03;;;2.70;;
46210;SDS011;52144;48.040;-1.594;2024-01-07T04:07:22;4.18;;;3.38;;
46210;SDS011;52144;48.040;-1.594;2024-01-07T04:09:51;3.22;;;1.58;;
46210;SDS011;52144;48.040;-1.594;2024-01-07T04:12:19;2.15;;;1.98;;
46210;SDS011;52144;48.040;-1.594;2024-01-07T04:14:47;2.97;;;2.45;;
46210;SDS011;52144;48.040;-1.594;2024-01-07T04:17:15;2.70;;;2.50;;
46210;SDS011;52144;48.040;-1.594;2024-01-07T04:19:43;2.88;;;2.13;;
46210;SDS011;52144;48.040;-1.594;2024-01-07T04:22:10;2.53;;;1.90;;
46210;SDS011;52144;48.040;-1.594;2024-01-07T04:24:40;4.15;;;2.42;;
46210;SDS011;52144;48.040;-1.594;2024-01-07T04:27:09;4.32;;;3.15;;
46210;SDS011;52144;48.040;-1.594;2024-01-07T04:29:37;3.03;;;2.33;;
46210;SDS011;52144;48.040;-1.594;2024-01-07T04:32:05;4.90;;;3.25;;
46210;SDS011;52144;48.040;-1.594;2024-01-07T04:34:33;2.80;;;1.95;;
46210;SDS011;52144;48.040;-1.594;2024-01-07T04:37:01;3.22;;;2.28;;
46210;SDS011;52144;48.040;-1.594;2024-01-07T04:39:29;3.45;;;2.80;;
46210;SDS011;52144;48.040;-1.594;2024-01-07T04:41:57;2.58;;;2.35;;
46210;SDS011;52144;48.040;-1.594;2024-01-07T04:44:26;2.40;;;2.17;;
46210;SDS011;52144;48.040;-1.594;2024-01-07T04:46:53;3.55;;;3.25;;
46210;SDS011;52144;48.040;-1.594;2024-01-07T04:49:21;5.80;;;2.08;;
46210;SDS011;52144;48.040;-1.594;2024-01-07T04:51:49;3.17;;;2.88;;
46210;SDS011;52144;48.040;-1.594;2024-01-07T04:54:17;2.40;;;1.83;;
46210;SDS011;52144;48.040;-1.594;2024-01-07T04:56:45;3.00;;;2.40;;
46210;SDS011;52144;48.040;-1.594;2024-01-07T04:59:13;2.80;;;1.83;;
46210;SDS011;52144;48.040;-1.594;2024-01-07T05:01:42;2.67;;;2.47;;
46210;SDS011;52144;48.040;-1.594;2024-01-07T05:04:10;3.47;;;1.95;;
46210;SDS011;52144;48.040;-1.594;2024-01-07T05:06:38;3.05;;;2.53;;
46210;SDS011;52144;48.040;-1.594;2024-01-07T05:09:05;3.00;;;2.05;;
46210;SDS011;52144;48.040;-1.594;2024-01-07T05:11:38;2.60;;;1.75;;
46210;SDS011;52144;48.040;-1.594;2024-01-07T05:16:34;3.13;;;2.42;;
46210;SDS011;52144;48.040;-1.594;2024-01-07T05:19:03;2.53;;;2.33;;
46210;SDS011;52144;48.040;-1.594;2024-01-07T05:21:31;2.55;;;2.35;;
46210;SDS011;52144;48.040;-1.594;2024-01-07T05:23:59;2.50;;;2.10;;
46210;SDS011;52144;48.040;-1.594;2024-01-07T05:26:27;3.47;;;2.33;;
46210;SDS011;52144;48.040;-1.594;2024-01-07T05:28:54;1.95;;;1.83;;
46210;SDS011;52144;48.040;-1.594;2024-01-07T05:31:22;5.78;;;2.92;;
46210;SDS011;52144;48.040;-1.594;2024-01-07T05:33:50;3.75;;;2.10;;
46210;SDS011;52144;48.040;-1.594;2024-01-07T05:36:19;3.22;;;1.70;;
46210;SDS011;52144;48.040;-1.594;2024-01-07T05:38:47;1.25;;;1.25;;
46210;SDS011;52144;48.040;-1.594;2024-01-07T05:41:15;2.13;;;1.27;;
46210;SDS011;52144;48.040;-1.594;2024-01-07T05:43:43;4.47;;;2.60;;
46210;SDS011;52144;48.040;-1.594;2024-01-07T05:46:11;1.60;;;1.30;;
46210;SDS011;52144;48.040;-1.594;2024-01-07T05:48:44;2.50;;;1.90;;
46210;SDS011;52144;48.040;-1.594;2024-01-07T05:51:13;4.47;;;1.95;;
46210;SDS011;52144;48.040;-1.594;2024-01-07T05:53:44;2.30;;;2.08;;
46210;SDS011;52144;48.040;-1.594;2024-01-07T05:56:12;5.50;;;2.70;;
46210;SDS011;52144;48.040;-1.594;2024-01-07T05:58:40;2.22;;;2.03;;
46210;SDS011;52144;48.040;-1.594;2024-01-07T06:01:08;2.45;;;1.88;;
46210;SDS011;52144;48.040;-1.594;2024-01-07T06:03:36;3.22;;;2.40;;
46210;SDS011;52144;48.040;-1.594;2024-01-07T06:06:04;2.53;;;2.05;;
46210;SDS011;52144;48.040;-1.594;2024-01-07T06:08:32;3.00;;;1.85;;
46210;SDS011;52144;48.040;-1.594;2024-01-07T06:11:01;2.58;;;2.35;;
46210;SDS011;52144;48.040;-1.594;2024-01-07T06:13:29;3.55;;;2.45;;
46210;SDS011;52144;48.040;-1.594;2024-01-07T06:15:56;2.33;;;1.92;;
46210;SDS011;52144;48.040;-1.594;2024-01-07T06:18:24;5.00;;;2.13;;
46210;SDS011;52144;48.040;-1.594;2024-01-07T06:20:52;3.35;;;2.28;;
46210;SDS011;52144;48.040;-1.594;2024-01-07T06:23:20;3.10;;;2.20;;
46210;SDS011;52144;48.040;-1.594;2024-01-07T06:25:48;2.00;;;1.80;;
46210;SDS011;52144;48.040;-1.594;2024-01-07T06:28:17;3.20;;;2.50;;
46210;SDS011;52144;48.040;-1.594;2024-01-07T06:30:45;3.15;;;1.80;;
46210;SDS011;52144;48.040;-1.594;2024-01-07T06:33:12;2.40;;;2.20;;
46210;SDS011;52144;48.040;-1.594;2024-01-07T06:35:41;4.72;;;2.67;;
46210;SDS011;52144;48.040;-1.594;2024-01-07T06:38:09;4.93;;;1.67;;
46210;SDS011;52144;48.040;-1.594;2024-01-07T06:40:36;2.90;;;1.73;;
46210;SDS011;52144;48.040;-1.594;2024-01-07T06:43:04;1.67;;;1.58;;
46210;SDS011;52144;48.040;-1.594;2024-01-07T06:45:34;5.07;;;2.03;;
46210;SDS011;52144;48.040;-1.594;2024-01-07T06:48:01;1.88;;;1.52;;
46210;SDS011;52144;48.040;-1.594;2024-01-07T06:50:29;1.52;;;1.10;;
46210;SDS011;52144;48.040;-1.594;2024-01-07T06:52:57;2.47;;;2.28;;
46210;SDS011;52144;48.040;-1.594;2024-01-07T06:55:25;2.28;;;1.33;;
46210;SDS011;52144;48.040;-1.594;2024-01-07T06:57:53;4.40;;;1.20;;
46210;SDS011;52144;48.040;-1.594;2024-01-07T07:00:20;1.20;;;1.20;;
46210;SDS011;52144;48.040;-1.594;2024-01-07T07:02:50;1.80;;;1.70;;
46210;SDS011;52144;48.040;-1.594;2024-01-07T07:05:17;7.95;;;2.30;;
46210;SDS011;52144;48.040;-1.594;2024-01-07T07:07:45;3.15;;;2.30;;
46210;SDS011;52144;48.040;-1.594;2024-01-07T07:10:13;1.77;;;1.48;;
46210;SDS011;52144;48.040;-1.594;2024-01-07T07:12:41;2.80;;;1.77;;
46210;SDS011;52144;48.040;-1.594;2024-01-07T07:15:09;1.90;;;1.40;;
46210;SDS011;52144;48.040;-1.594;2024-01-07T07:17:37;3.13;;;1.63;;
46210;SDS011;52144;48.040;-1.594;2024-01-07T07:20:07;4.07;;;2.20;;
46210;SDS011;52144;48.040;-1.594;2024-01-07T07:22:36;1.90;;;1.77;;
46210;SDS011;52144;48.040;-1.594;2024-01-07T07:25:04;4.10;;;1.77;;
46210;SDS011;52144;48.040;-1.594;2024-01-07T07:27:32;5.10;;;1.88;;
46210;SDS011;52144;48.040;-1.594;2024-01-07T07:30:00;1.95;;;1.83;;
46210;SDS011;52144;48.040;-1.594;2024-01-07T07:32:28;3.35;;;1.75;;
46210;SDS011;52144;48.040;-1.594;2024-01-07T07:34:56;3.45;;;1.52;;
46210;SDS011;52144;48.040;-1.594;2024-01-07T07:37:25;7.15;;;1.80;;
46210;SDS011;52144;48.040;-1.594;2024-01-07T07:39:53;2.40;;;1.80;;
46210;SDS011;52144;48.040;-1.594;2024-01-07T07:42:21;2.50;;;2.10;;
46210;SDS011;52144;48.040;-1.594;2024-01-07T07:44:48;3.08;;;1.50;;
46210;SDS011;52144;48.040;-1.594;2024-01-07T07:47:16;1.27;;;1.02;;
46210;SDS011;52144;48.040;-1.594;2024-01-07T07:49:44;1.98;;;1.38;;
46210;SDS011;52144;48.040;-1.594;2024-01-07T07:52:12;1.20;;;1.10;;
46210;SDS011;52144;48.040;-1.594;2024-01-07T07:54:42;2.53;;;1.70;;
46210;SDS011;52144;48.040;-1.594;2024-01-07T07:57:11;1.80;;;1.35;;
46210;SDS011;52144;48.040;-1.594;2024-01-07T07:59:39;3.25;;;2.30;;
46210;SDS011;52144;48.040;-1.594;2024-01-07T08:02:07;2.83;;;2.25;;
46210;SDS011;52144;48.040;-1.594;2024-01-07T08:04:35;4.82;;;2.55;;
46210;SDS011;52144;48.040;-1.594;2024-01-07T08:07:03;2.95;;;2.33;;
46210;SDS011;52144;48.040;-1.594;2024-01-07T08:09:31;1.63;;;1.33;;
46210;SDS011;52144;48.040;-1.594;2024-01-07T08:12:00;3.55;;;2.45;;
46210;SDS011;52144;48.040;-1.594;2024-01-07T08:14:28;5.07;;;3.10;;
46210;SDS011;52144;48.040;-1.594;2024-01-07T08:16:56;8.98;;;2.10;;
46210;SDS011;52144;48.040;-1.594;2024-01-07T08:19:23;4.20;;;3.33;;
46210;SDS011;52144;48.040;-1.594;2024-01-07T08:21:51;4.78;;;2.42;;
46210;SDS011;52144;48.040;-1.594;2024-01-07T08:24:19;4.53;;;2.85;;
46210;SDS011;52144;48.040;-1.594;2024-01-07T08:26:48;3.40;;;2.33;;
46210;SDS011;52144;48.040;-1.594;2024-01-07T08:29:17;2.90;;;2.67;;
46210;SDS011;52144;48.040;-1.594;2024-01-07T08:31:45;15.20;;;5.43;;
46210;SDS011;52144;48.040;-1.594;2024-01-07T08:34:13;23.77;;;9.23;;
46210;SDS011;52144;48.040;-1.594;2024-01-07T08:36:41;7.50;;;4.25;;
46210;SDS011;52144;48.040;-1.594;2024-01-07T08:39:09;7.43;;;4.30;;
46210;SDS011;52144;48.040;-1.594;2024-01-07T08:41:37;3.03;;;1.55;;
46210;SDS011;52144;48.040;-1.594;2024-01-07T08:44:05;6.13;;;2.60;;
46210;SDS011;52144;48.040;-1.594;2024-01-07T08:46:36;5.78;;;2.80;;
46210;SDS011;52144;48.040;-1.594;2024-01-07T08:49:03;6.18;;;3.38;;
46210;SDS011;52144;48.040;-1.594;2024-01-07T08:51:31;2.97;;;2.33;;
46210;SDS011;52144;48.040;-1.594;2024-01-07T08:53:59;4.18;;;2.10;;
46210;SDS011;52144;48.040;-1.594;2024-01-07T08:56:27;2.15;;;1.55;;
46210;SDS011;52144;48.040;-1.594;2024-01-07T08:58:55;12.77;;;2.00;;
46210;SDS011;52144;48.040;-1.594;2024-01-07T09:01:23;2.05;;;0.95;;
46210;SDS011;52144;48.040;-1.594;2024-01-07T09:03:52;1.35;;;1.25;;
46210;SDS011;52144;48.040;-1.594;2024-01-07T09:06:20;1.90;;;1.48;;
46210;SDS011;52144;48.040;-1.594;2024-01-07T09:08:48;2.97;;;1.80;;
46210;SDS011;52144;48.040;-1.594;2024-01-07T09:11:18;2.83;;;2.30;;
46210;SDS011;52144;48.040;-1.594;2024-01-07T09:13:46;2.38;;;1.63;;
46210;SDS011;52144;48.040;-1.594;2024-01-07T09:16:16;5.75;;;1.88;;
46210;SDS011;52144;48.040;-1.594;2024-01-07T09:18:44;1.23;;;1.08;;
46210;SDS011;52144;48.040;-1.594;2024-01-07T09:21:14;5.95;;;2.80;;
46210;SDS011;52144;48.040;-1.594;2024-01-07T09:23:43;2.80;;;2.03;;
46210;SDS011;52144;48.040;-1.594;2024-01-07T09:26:11;3.22;;;1.50;;
46210;SDS011;52144;48.040;-1.594;2024-01-07T09:28:38;6.95;;;1.73;;
46210;SDS011;52144;48.040;-1.594;2024-01-07T09:31:09;11.88;;;3.22;;
46210;SDS011;52144;48.040;-1.594;2024-01-07T09:33:36;3.40;;;2.35;;
46210;SDS011;52144;48.040;-1.594;2024-01-07T09:36:06;6.53;;;2.17;;
46210;SDS011;52144;48.040;-1.594;2024-01-07T09:38:52;1.48;;;1.38;;
46210;SDS011;52144;48.040;-1.594;2024-01-07T09:41:21;2.50;;;1.58;;
46210;SDS011;52144;48.040;-1.594;2024-01-07T09:43:48;0.70;;;0.70;;
46210;SDS011;52144;48.040;-1.594;2024-01-07T09:46:18;1.42;;;1.23;;
46210;SDS011;52144;48.040;-1.594;2024-01-07T09:48:46;1.10;;;1.05;;
46210;SDS011;52144;48.040;-1.594;2024-01-07T09:51:14;3.38;;;1.88;;
46210;SDS011;52144;48.040;-1.594;2024-01-07T09:53:45;1.60;;;1.50;;
46210;SDS011;52144;48.040;-1.594;2024-01-07T09:56:18;1.40;;;1.00;;
46210;SDS011;52144;48.040;-1.594;2024-01-07T09:58:50;11.57;;;2.80;;
46210;SDS011;52144;48.040;-1.594;2024-01-07T10:01:18;0.80;;;0.75;;
46210;SDS011;52144;48.040;-1.594;2024-01-07T10:03:46;2.05;;;1.40;;
46210;SDS011;52144;48.040;-1.594;2024-01-07T10:06:17;12.32;;;2.72;;
46210;SDS011;52144;48.040;-1.594;2024-01-07T10:08:46;5.78;;;1.15;;
46210;SDS011;52144;48.040;-1.594;2024-01-07T10:11:14;1.45;;;0.90;;
46210;SDS011;52144;48.040;-1.594;2024-01-07T10:13:43;1.17;;;0.93;;
46210;SDS011;52144;48.040;-1.594;2024-01-07T10:16:13;1.10;;;0.93;;
46210;SDS011;52144;48.040;-1.594;2024-01-07T10:18:42;4.32;;;1.67;;
46210;SDS011;52144;48.040;-1.594;2024-01-07T10:21:10;0.70;;;0.70;;
46210;SDS011;52144;48.040;-1.594;2024-01-07T10:23:37;4.85;;;1.25;;
46210;SDS011;52144;48.040;-1.594;2024-01-07T10:26:05;3.97;;;1.35;;
46210;SDS011;52144;48.040;-1.594;2024-01-07T10:28:49;1.57;;;0.93;;
46210;SDS011;52144;48.040;-1.594;2024-01-07T10:31:17;0.80;;;0.80;;
46210;SDS011;52144;48.040;-1.594;2024-01-07T10:33:46;1.85;;;1.20;;
46210;SDS011;52144;48.040;-1.594;2024-01-07T10:36:13;1.02;;;0.90;;
46210;SDS011;52144;48.040;-1.594;2024-01-07T10:38:42;0.80;;;0.80;;
46210;SDS011;52144;48.040;-1.594;2024-01-07T10:41:12;5.25;;;1.25;;
46210;SDS011;52144;48.040;-1.594;2024-01-07T10:43:42;0.70;;;0.70;;
46210;SDS011;52144;48.040;-1.594;2024-01-07T10:46:15;1.73;;;1.05;;
46210;SDS011;52144;48.040;-1.594;2024-01-07T10:48:46;1.70;;;1.02;;
46210;SDS011;52144;48.040;-1.594;2024-01-07T10:51:21;1.50;;;1.40;;
46210;SDS011;52144;48.040;-1.594;2024-01-07T10:53:51;3.78;;;1.45;;
46210;SDS011;52144;48.040;-1.594;2024-01-07T10:56:22;8.55;;;2.20;;
46210;SDS011;52144;48.040;-1.594;2024-01-07T10:58:51;1.40;;;1.13;;
46210;SDS011;52144;48.040;-1.594;2024-01-07T11:01:22;1.88;;;1.77;;
46210;SDS011;52144;48.040;-1.594;2024-01-07T11:03:53;2.00;;;1.45;;
46210;SDS011;52144;48.040;-1.594;2024-01-07T11:06:27;1.35;;;1.05;;
46210;SDS011;52144;48.040;-1.594;2024-01-07T11:09:06;0.80;;;0.80;;
46210;SDS011;52144;48.040;-1.594;2024-01-07T11:11:44;3.60;;;1.83;;
46210;SDS011;52144;48.040;-1.594;2024-01-07T11:17:04;0.75;;;0.75;;
46210;SDS011;52144;48.040;-1.594;2024-01-07T11:19:32;0.88;;;0.88;;
46210;SDS011;52144;48.040;-1.594;2024-01-07T11:24:55;1.25;;;1.08;;
46210;SDS011;52144;48.040;-1.594;2024-01-07T11:27:24;2.03;;;1.45;;
46210;SDS011;52144;48.040;-1.594;2024-01-07T11:29:54;4.18;;;1.85;;
46210;SDS011;52144;48.040;-1.594;2024-01-07T11:32:24;0.50;;;0.50;;
46210;SDS011;52144;48.040;-1.594;2024-01-07T11:37:26;3.65;;;1.20;;
46210;SDS011;52144;48.040;-1.594;2024-01-07T11:39:55;0.82;;;0.82;;
46210;SDS011;52144;48.040;-1.594;2024-01-07T11:42:24;7.43;;;3.47;;
46210;SDS011;52144;48.040;-1.594;2024-01-07T11:44:52;2.75;;;1.20;;
46210;SDS011;52144;48.040;-1.594;2024-01-07T11:47:22;1.95;;;0.77;;
46210;SDS011;52144;48.040;-1.594;2024-01-07T11:49:52;1.45;;;0.80;;
46210;SDS011;52144;48.040;-1.594;2024-01-07T11:52:20;0.70;;;0.70;;
46210;SDS011;52144;48.040;-1.594;2024-01-07T11:54:48;4.00;;;1.13;;
46210;SDS011;52144;48.040;-1.594;2024-01-07T11:57:16;1.05;;;0.93;;
46210;SDS011;52144;48.040;-1.594;2024-01-07T11:59:45;1.05;;;0.98;;
46210;SDS011;52144;48.040;-1.594;2024-01-07T12:02:13;2.88;;;0.80;;
46210;SDS011;52144;48.040;-1.594;2024-01-07T12:04:43;1.65;;;1.00;;
46210;SDS011;52144;48.040;-1.594;2024-01-07T12:07:12;5.82;;;1.25;;
46210;SDS011;52144;48.040;-1.594;2024-01-07T12:09:41;1.70;;;1.00;;
46210;SDS011;52144;48.040;-1.594;2024-01-07T12:12:09;4.35;;;1.20;;
46210;SDS011;52144;48.040;-1.594;2024-01-07T12:14:36;2.17;;;1.92;;
46210;SDS011;52144;48.040;-1.594;2024-01-07T12:17:04;1.17;;;1.05;;
46210;SDS011;52144;48.040;-1.594;2024-01-07T12:19:34;3.30;;;1.75;;
46210;SDS011;52144;48.040;-1.594;2024-01-07T12:22:03;1.48;;;0.82;;
46210;SDS011;52144;48.040;-1.594;2024-01-07T12:24:32;0.98;;;0.98;;
46210;SDS011;52144;48.040;-1.594;2024-01-07T12:27:03;2.67;;;0.77;;
46210;SDS011;52144;48.040;-1.594;2024-01-07T12:29:31;1.23;;;0.68;;
46210;SDS011;52144;48.040;-1.594;2024-01-07T12:31:59;0.82;;;0.82;;
46210;SDS011;52144;48.040;-1.594;2024-01-07T12:34:29;7.28;;;2.03;;
46210;SDS011;52144;48.040;-1.594;2024-01-07T12:36:58;2.00;;;1.20;;
46210;SDS011;52144;48.040;-1.594;2024-01-07T12:39:26;1.70;;;0.73;;
46210;SDS011;52144;48.040;-1.594;2024-01-07T12:41:56;1.85;;;0.98;;
46210;SDS011;52144;48.040;-1.594;2024-01-07T12:44:26;1.60;;;1.20;;
46210;SDS011;52144;48.040;-1.594;2024-01-07T12:46:55;0.90;;;0.80;;
46210;SDS011;52144;48.040;-1.594;2024-01-07T12:49:22;1.48;;;1.33;;
46210;SDS011;52144;48.040;-1.594;2024-01-07T12:51:50;3.03;;;1.75;;
46210;SDS011;52144;48.040;-1.594;2024-01-07T12:54:18;0.80;;;0.80;;
46210;SDS011;52144;48.040;-1.594;2024-01-07T12:56:47;0.63;;;0.63;;
46210;SDS011;52144;48.040;-1.594;2024-01-07T12:59:17;3.95;;;0.60;;
46210;SDS011;52144;48.040;-1.594;2024-01-07T13:01:44;3.58;;;0.80;;
46210;SDS011;52144;48.040;-1.594;2024-01-07T13:04:12;0.85;;;0.80;;
46210;SDS011;52144;48.040;-1.594;2024-01-07T13:06:40;0.70;;;0.70;;
46210;SDS011;52144;48.040;-1.594;2024-01-07T13:09:08;2.35;;;1.00;;
46210;SDS011;52144;48.040;-1.594;2024-01-07T13:11:36;4.55;;;1.73;;
46210;SDS011;52144;48.040;-1.594;2024-01-07T13:14:05;5.72;;;1.63;;
46210;SDS011;52144;48.040;-1.594;2024-01-07T13:16:34;3.60;;;1.38;;
46210;SDS011;52144;48.040;-1.594;2024-01-07T13:19:02;9.45;;;1.17;;
46210;SDS011;52144;48.040;-1.594;2024-01-07T13:21:30;0.73;;;0.73;;
46210;SDS011;52144;48.040;-1.594;2024-01-07T13:24:04;2.25;;;1.08;;
46210;SDS011;52144;48.040;-1.594;2024-01-07T13:26:32;5.50;;;1.63;;
46210;SDS011;52144;48.040;-1.594;2024-01-07T13:29:00;1.30;;;1.02;;
46210;SDS011;52144;48.040;-1.594;2024-01-07T13:31:30;2.50;;;0.82;;
46210;SDS011;52144;48.040;-1.594;2024-01-07T13:34:00;1.65;;;1.27;;
46210;SDS011;52144;48.040;-1.594;2024-01-07T13:36:28;2.85;;;1.10;;
46210;SDS011;52144;48.040;-1.594;2024-01-07T13:38:56;1.55;;;0.70;;
46210;SDS011;52144;48.040;-1.594;2024-01-07T13:41:24;7.68;;;1.65;;
46210;SDS011;52144;48.040;-1.594;2024-01-07T13:43:55;1.23;;;0.98;;
46210;SDS011;52144;48.040;-1.594;2024-01-07T13:46:23;8.57;;;1.20;;
46210;SDS011;52144;48.040;-1.594;2024-01-07T13:48:53;2.83;;;1.10;;
46210;SDS011;52144;48.040;-1.594;2024-01-07T13:51:23;0.82;;;0.82;;
46210;SDS011;52144;48.040;-1.594;2024-01-07T13:53:52;3.47;;;0.70;;
46210;SDS011;52144;48.040;-1.594;2024-01-07T13:56:19;4.50;;;2.20;;
46210;SDS011;52144;48.040;-1.594;2024-01-07T13:58:47;4.10;;;2.10;;
46210;SDS011;52144;48.040;-1.594;2024-01-07T14:01:16;4.72;;;1.40;;
46210;SDS011;52144;48.040;-1.594;2024-01-07T14:03:44;5.40;;;0.90;;
46210;SDS011;52144;48.040;-1.594;2024-01-07T14:06:12;1.10;;;1.00;;
46210;SDS011;52144;48.040;-1.594;2024-01-07T14:08:41;0.80;;;0.80;;
46210;SDS011;52144;48.040;-1.594;2024-01-07T14:11:09;0.70;;;0.70;;
46210;SDS011;52144;48.040;-1.594;2024-01-07T14:13:37;2.85;;;1.13;;
46210;SDS011;52144;48.040;-1.594;2024-01-07T14:16:05;1.48;;;0.93;;
46210;SDS011;52144;48.040;-1.594;2024-01-07T14:18:33;3.60;;;0.85;;
46210;SDS011;52144;48.040;-1.594;2024-01-07T14:21:01;0.60;;;0.60;;
46210;SDS011;52144;48.040;-1.594;2024-01-07T14:23:29;1.90;;;1.05;;
46210;SDS011;52144;48.040;-1.594;2024-01-07T14:25:59;1.52;;;0.68;;
46210;SDS011;52144;48.040;-1.594;2024-01-07T14:28:27;1.38;;;0.70;;
46210;SDS011;52144;48.040;-1.594;2024-01-07T14:30:55;1.80;;;0.82;;
46210;SDS011;52144;48.040;-1.594;2024-01-07T14:33:24;1.10;;;0.70;;
46210;SDS011;52144;48.040;-1.594;2024-01-07T14:35:52;2.78;;;0.82;;
46210;SDS011;52144;48.040;-1.594;2024-01-07T14:38:20;0.80;;;0.80;;
46210;SDS011;52144;48.040;-1.594;2024-01-07T14:40:48;1.35;;;1.00;;
46210;SDS011;52144;48.040;-1.594;2024-01-07T14:43:19;2.38;;;1.02;;
46210;SDS011;52144;48.040;-1.594;2024-01-07T14:45:47;2.95;;;1.15;;
46210;SDS011;52144;48.040;-1.594;2024-01-07T14:48:15;1.00;;;0.60;;
46210;SDS011;52144;48.040;-1.594;2024-01-07T14:50:43;2.17;;;1.02;;